Time;durP1;ratioP1;P1;durP2;ratioP2;P2;SDS_P1;SDS_P2;PMS_P1;PMS_P2;Temp;Humidity;BMP_temperature;BMP_pressure;BME280_temperature;BME280_humidity;BME280_pressure;Samples;Min_cycle;Max_cycle;Signal;HPM_P1;HPM_P2
2023/01/04 00:00:17;;;;;;;;;;;;;;;0.31;70.30;102129.10;1605027;87;20223;-77
2023/01/04 00:02:43;;;;;;;;;;;;;;;0.30;70.33;102130.77;1603272;87;20557;-76
2023/01/04 00:05:10;;;;;;;;;;;;;;;0.30;70.36;102129.50;1604715;87;20622;-77
2023/01/04 00:07:36;;;;;;;;;;;;;;;0.26;70.29;102119.97;1608283;87;21094;-77
2023/01/04 00:10:02;;;;;;;;;;;;;;;0.24;70.37;102111.39;1603681;87;20196;-77
2023/01/04 00:12:29;;;;;;;;;;;;;;;0.22;70.37;102104.48;1607531;87;20215;-77
2023/01/04 00:14:55;;;;;;;;;;;;;;;0.21;70.38;102100.19;1608696;87;20545;-76
2023/01/04 00:17:21;;;;;;;;;;;;;;;0.24;70.42;102107.58;1609801;87;20896;-76
2023/01/04 00:19:47;;;;;;;;;;;;;;;0.24;70.36;102104.16;1606060;87;21080;-77
2023/01/04 00:22:13;;;;;;;;;;;;;;;0.22;70.36;102095.58;1607163;87;20584;-77
2023/01/04 00:24:39;;;;;;;;;;;;;;;0.14;70.27;102091.37;1607701;87;20532;-77
2023/01/04 00:27:06;;;;;;;;;;;;;;;0.07;70.41;102085.51;1605910;87;20540;-77
2023/01/04 00:29:32;;;;;;;;;;;;;;;0.04;70.45;102084.09;1605582;87;20624;-77
2023/01/04 00:31:58;;;;;;;;;;;;;;;0.05;70.51;102090.05;1611282;84;21048;-77
2023/01/04 00:34:24;;;;;;;;;;;;;;;0.07;70.57;102089.72;1645437;84;20173;-77
2023/01/04 00:36:50;;;;;;;;;;;;;;;0.08;70.58;102084.72;1645852;84;20586;-77
2023/01/04 00:39:17;;;;;;;;;;;;;;;0.08;70.51;102086.38;1645598;84;20267;-77
2023/01/04 00:41:45;;;;;;;;;;;;;;;0.07;70.50;102089.33;1645743;84;20211;-77
2023/01/04 00:44:12;;;;;;;;;;;;;;;0.07;70.47;102079.16;1647294;84;21159;-77
2023/01/04 00:46:38;;;;;;;;;;;;;;;0.05;70.49;102077.33;1644148;84;20217;-77
2023/01/04 00:49:06;;;;;;;;;;;;;;;0.06;70.55;102066.36;1644917;84;20357;-77
2023/01/04 00:51:33;;;;;;;;;;;;;;;0.05;70.53;102058.26;1649287;84;20912;-77
2023/01/04 00:54:00;;;;;;;;;;;;;;;0.03;70.55;102059.45;1644251;84;20163;-77
2023/01/04 00:56:30;;;;;;;;;;;;;;;0.08;70.61;102059.69;1650374;84;21939;-77
2023/01/04 00:58:58;;;;;;;;;;;;;;;0.04;70.52;102061.59;1647085;84;20522;-77
2023/01/04 01:01:24;;;;;;;;;;;;;;;0.03;70.57;102070.89;1647883;84;20096;-77
2023/01/04 01:03:56;;;;;;;;;;;;;;;0.02;70.57;102083.53;1645528;84;20176;-76
2023/01/04 01:06:23;;;;;;;;;;;;;;;-0.02;70.58;102083.81;1621890;86;20484;-77
2023/01/04 01:08:50;;;;;;;;;;;;;;;-0.02;70.62;102078.33;1622883;86;21851;-77
2023/01/04 01:11:17;;;;;;;;;;;;;;;-0.05;70.73;102079.84;1610315;87;20190;-77
2023/01/04 01:13:43;;;;;;;;;;;;;;;-0.06;70.83;102077.70;1627123;86;20140;-77
2023/01/04 01:16:12;;;;;;;;;;;;;;;-0.10;70.69;102073.25;1608462;87;20146;-77
2023/01/04 01:18:39;;;;;;;;;;;;;;;-0.14;70.68;102078.98;1624553;86;20447;-77
2023/01/04 01:21:07;;;;;;;;;;;;;;;-0.18;70.74;102077.08;1608371;87;21139;-77
2023/01/04 01:23:33;;;;;;;;;;;;;;;-0.15;70.84;102075.95;1623786;86;20175;-77
2023/01/04 01:26:00;;;;;;;;;;;;;;;-0.12;70.87;102069.76;1610283;87;20106;-77
2023/01/04 01:28:27;;;;;;;;;;;;;;;-0.09;70.86;102067.77;1624937;86;20394;-77
2023/01/04 01:30:53;;;;;;;;;;;;;;;-0.03;70.93;102065.53;1606636;87;20153;-77
2023/01/04 01:33:19;;;;;;;;;;;;;;;-0.03;70.76;102056.23;1614253;87;21066;-76
2023/01/04 01:35:45;;;;;;;;;;;;;;;-0.05;70.80;102055.69;1594609;87;20155;-76
2023/01/04 01:38:11;;;;;;;;;;;;;;;-0.06;70.88;102051.00;1604660;87;20151;-76
2023/01/04 01:40:41;;;;;;;;;;;;;;;-0.05;71.00;102042.58;1593886;87;20134;-77
2023/01/04 01:43:19;;;;;;;;;;;;;;;-0.03;70.99;102037.17;1608991;87;20457;-77
2023/01/04 01:45:48;;;;;;;;;;;;;;;0.01;71.05;102034.34;1577036;87;22429;-77
2023/01/04 01:48:23;;;;;;;;;;;;;;;0.05;70.98;102029.89;1604763;87;20131;-77
2023/01/04 01:50:57;;;;;;;;;;;;;;;0.07;70.98;102024.88;1593698;87;20176;-77
2023/01/04 01:53:25;;;;;;;;;;;;;;;0.08;71.09;102021.53;1606715;87;20103;-76
2023/01/04 01:55:51;;;;;;;;;;;;;;;0.07;70.85;102011.77;1594329;87;20180;-76
2023/01/04 01:58:21;;;;;;;;;;;;;;;0.05;70.87;102009.55;1608536;87;21524;-77
2023/01/04 02:00:47;;;;;;;;;;;;;;;0.07;71.07;102004.13;1586772;88;20416;-77
2023/01/04 02:03:20;;;;;;;;;;;;;;;0.13;71.12;101995.94;1583250;88;20115;-77
2023/01/04 02:05:49;;;;;;;;;;;;;;;0.09;71.14;101979.66;1582599;88;20184;-77
2023/01/04 02:08:15;;;;;;;;;;;;;;;0.11;71.35;101975.52;1594418;87;20122;-77
2023/01/04 02:10:41;;;;;;;;;;;;;;;0.17;71.32;101973.66;1606353;87;21065;-77
2023/01/04 02:13:11;;;;;;;;;;;;;;;0.20;71.35;101980.17;1594726;87;20183;-77
2023/01/04 02:15:53;;;;;;;;;;;;;;;0.25;71.40;101988.89;1605418;87;20212;-77
2023/01/04 02:18:23;;;;;;;;;;;;;;;0.28;71.37;101973.78;1606643;87;20537;-76
2023/01/04 02:20:55;;;;;;;;;;;;;;;0.32;71.37;101975.67;1608556;87;20212;-76
2023/01/04 02:23:25;;;;;;;;;;;;;;;0.33;71.32;101974.47;1593363;87;21106;-76
2023/01/04 02:26:01;;;;;;;;;;;;;;;0.34;71.26;101971.52;1610946;87;20187;-77
2023/01/04 02:28:42;;;;;;;;;;;;;;;0.32;71.29;101970.18;1606004;87;21091;-76
2023/01/04 02:31:30;;;;;;;;;;;;;;;0.31;71.38;101959.53;1605062;87;20568;-76
2023/01/04 02:34:12;;;;;;;;;;;;;;;0.36;71.51;101966.11;1605862;87;20236;-76
2023/01/04 02:36:47;;;;;;;;;;;;;;;0.38;71.53;101959.42;1605767;87;21046;-76
2023/01/04 02:39:17;;;;;;;;;;;;;;;0.42;71.54;101958.77;1594084;87;20659;-76
2023/01/04 02:41:53;;;;;;;;;;;;;;;0.42;71.51;101955.34;1602947;87;20216;-76
2023/01/04 02:50:29;;;;;;;;;;;;;;;0.37;71.54;101944.08;1597655;87;20239;-77
2023/01/04 02:52:32;;;;;;;;;;;;;;;0.30;71.72;101937.44;1603950;87;20195;-76
2023/01/04 02:54:59;;;;;;;;;;;;;;;0.37;71.79;101926.27;1592870;87;20206;-77
2023/01/04 02:57:44;;;;;;;;;;;;;;;0.46;71.80;101912.30;1602129;87;20215;-77
2023/01/04 03:00:26;;;;;;;;;;;;;;;0.55;71.83;101922.00;1594139;87;20525;-76
2023/01/04 03:06:14;;;;;;;;;;;;;;;0.68;71.91;101900.12;1605996;87;20231;-77
2023/01/04 03:08:52;;;;;;;;;;;;;;;0.70;71.80;101878.55;1604226;87;20185;-76
2023/01/04 03:14:07;;;;;;;;;;;;;;;0.76;71.95;101885.19;1607201;87;20702;-76
2023/01/04 03:16:34;;;;;;;;;;;;;;;0.81;71.99;101888.41;1593758;88;21293;-77
2023/01/04 03:19:08;;;;;;;;;;;;;;;0.84;71.98;101876.20;1581687;88;20185;-77
2023/01/04 03:21:32;;;;;;;;;;;;;;;0.86;72.09;101874.59;1604921;87;20214;-77
2023/01/04 03:35:21;;;;;;;;;;;;;;;1.15;72.18;101863.95;1609168;86;20196;-76
2023/01/04 03:49:21;;;;;;;;;;;;;;;1.36;72.46;101861.84;1615885;86;20186;-77
2023/01/04 03:51:49;;;;;;;;;;;;;;;1.44;72.50;101864.30;1610151;87;20655;-77
2023/01/04 03:54:21;;;;;;;;;;;;;;;1.49;72.49;101856.44;1599935;88;20200;-77
2023/01/04 03:56:47;;;;;;;;;;;;;;;1.55;72.53;101850.31;1614440;86;21119;-76
2023/01/04 03:59:13;;;;;;;;;;;;;;;1.61;72.56;101845.43;1596182;87;20246;-77
2023/01/04 04:01:42;;;;;;;;;;;;;;;1.65;72.58;101839.64;1612263;86;20745;-77
2023/01/04 04:09:38;;;;;;;;;;;;;;;1.78;72.63;101839.32;1631688;86;21762;-77
2023/01/04 04:12:04;;;;;;;;;;;;;;;1.83;72.62;101830.58;1626417;86;20227;-77
2023/01/04 04:14:30;;;;;;;;;;;;;;;1.88;72.68;101829.08;1624653;86;20229;-77
2023/01/04 04:16:56;;;;;;;;;;;;;;;1.90;72.67;101818.12;1625481;86;20219;-77
2023/01/04 04:19:22;;;;;;;;;;;;;;;1.92;72.56;101814.36;1625200;86;20226;-77
2023/01/04 04:21:48;;;;;;;;;;;;;;;1.92;72.69;101802.87;1626810;87;21094;-77
2023/01/04 04:24:25;;;;;;;;;;;;;;;1.93;72.68;101790.19;1625474;86;20236;-77
2023/01/04 04:26:56;;;;;;;;;;;;;;;1.93;72.70;101783.81;1639045;85;20208;-77
2023/01/04 04:29:22;;;;;;;;;;;;;;;1.96;72.73;101771.58;1614223;86;20337;-77
2023/01/04 04:31:49;;;;;;;;;;;;;;;1.95;72.73;101760.50;1614223;86;20209;-76
2023/01/04 04:34:15;;;;;;;;;;;;;;;1.98;72.67;101750.83;1597776;87;21310;-77
2023/01/04 04:36:41;;;;;;;;;;;;;;;1.95;72.70;101740.10;1598199;87;20198;-77
2023/01/04 04:39:07;;;;;;;;;;;;;;;1.94;72.64;101731.98;1593252;88;20524;-77
2023/01/04 04:41:40;;;;;;;;;;;;;;;1.91;72.66;101721.67;1594879;87;20641;-77
2023/01/04 04:44:14;;;;;;;;;;;;;;;1.89;72.69;101722.43;1601626;87;20546;-74
2023/01/04 04:46:40;;;;;;;;;;;;;;;1.87;72.80;101721.09;1602892;87;21044;-75
2023/01/04 04:49:07;;;;;;;;;;;;;;;1.86;72.79;101713.39;1606241;87;20589;-75
2023/01/04 04:51:33;;;;;;;;;;;;;;;1.84;72.82;101714.61;1598494;87;20213;-76
2023/01/04 04:53:59;;;;;;;;;;;;;;;1.84;72.80;101718.44;1604105;87;20231;-76
2023/01/04 04:56:26;;;;;;;;;;;;;;;1.82;72.82;101716.23;1595145;87;20232;-75
2023/01/04 04:58:52;;;;;;;;;;;;;;;1.82;72.83;101716.23;1595121;87;21065;-75
2023/01/04 05:01:18;;;;;;;;;;;;;;;1.79;72.83;101714.84;1595635;87;20336;-75
2023/01/04 05:03:44;;;;;;;;;;;;;;;1.79;72.84;101716.52;1595676;87;20223;-75
2023/01/04 05:06:10;;;;;;;;;;;;;;;1.78;72.90;101708.00;1592810;87;20213;-75
2023/01/04 05:08:36;;;;;;;;;;;;;;;1.77;72.91;101701.58;1592492;87;20531;-76
2023/01/04 05:11:07;;;;;;;;;;;;;;;1.78;72.97;101698.21;1593548;87;21694;-75
2023/01/04 05:13:34;;;;;;;;;;;;;;;1.78;73.00;101691.43;1590737;88;20229;-75
2023/01/04 05:16:01;;;;;;;;;;;;;;;1.78;72.99;101689.28;1601727;87;20188;-75
2023/01/04 05:18:27;;;;;;;;;;;;;;;1.78;73.04;101690.16;1602965;87;20251;-76
2023/01/04 05:20:53;;;;;;;;;;;;;;;1.78;73.02;101682.91;1597326;87;20186;-77
2023/01/04 05:23:20;;;;;;;;;;;;;;;1.77;73.02;101673.12;1598067;87;21069;-77
2023/01/04 05:25:52;;;;;;;;;;;;;;;1.77;73.03;101678.22;1594996;87;20446;-77
2023/01/04 05:28:18;;;;;;;;;;;;;;;1.77;73.03;101671.84;1602716;87;20526;-76
2023/01/04 05:30:50;;;;;;;;;;;;;;;1.78;73.09;101665.93;1590774;89;20214;-76
2023/01/04 05:33:22;;;;;;;;;;;;;;;1.79;73.11;101657.88;1599229;87;339515;-76
2023/01/04 05:35:48;;;;;;;;;;;;;;;1.79;73.13;101654.92;1644146;85;22073;-76
2023/01/04 05:38:15;;;;;;;;;;;;;;;1.80;73.17;101651.96;1650627;84;20577;-76
2023/01/04 05:40:41;;;;;;;;;;;;;;;1.79;73.17;101652.78;1656466;84;20261;-75
2023/01/04 05:43:07;;;;;;;;;;;;;;;1.79;73.23;101656.60;1650973;84;20189;-76
2023/01/04 05:45:34;;;;;;;;;;;;;;;1.77;73.22;101653.99;1650219;84;20177;-76
2023/01/04 05:48:00;;;;;;;;;;;;;;;1.75;73.22;101644.15;1657606;84;21043;-76
2023/01/04 05:50:27;;;;;;;;;;;;;;;1.75;73.27;101640.33;1658247;84;20170;-76
2023/01/04 05:52:53;;;;;;;;;;;;;;;1.74;73.31;101632.21;1661673;84;20204;-76
2023/01/04 05:55:19;;;;;;;;;;;;;;;1.74;73.29;101627.52;1648963;84;20181;-76
2023/01/04 05:57:45;;;;;;;;;;;;;;;1.74;73.31;101624.56;1648810;85;20189;-76
2023/01/04 06:00:13;;;;;;;;;;;;;;;1.73;73.32;101622.83;1648274;85;21352;-76
2023/01/04 06:02:40;;;;;;;;;;;;;;;1.74;73.38;101621.14;1647570;85;20219;-77
2023/01/04 06:05:07;;;;;;;;;;;;;;;1.73;73.34;101619.41;1646737;85;20213;-76
2023/01/04 06:07:33;;;;;;;;;;;;;;;1.72;73.42;101615.12;1647266;84;20481;-76
2023/01/04 06:09:59;;;;;;;;;;;;;;;1.73;73.41;101605.39;1659389;84;20295;-76
2023/01/04 06:12:26;;;;;;;;;;;;;;;1.75;73.42;101601.20;1655964;84;21193;-76
2023/01/04 06:14:52;;;;;;;;;;;;;;;1.75;73.46;101574.03;1660410;84;20514;-77
2023/01/04 06:17:18;;;;;;;;;;;;;;;1.76;73.47;101578.73;1661388;84;20189;-76
2023/01/04 06:19:45;;;;;;;;;;;;;;;1.77;73.45;101579.19;1653885;84;20207;-76
2023/01/04 06:22:11;;;;;;;;;;;;;;;1.76;73.47;101575.77;1665780;84;20191;-76
2023/01/04 06:24:37;;;;;;;;;;;;;;;1.76;73.47;101576.17;1668433;84;21620;-76
2023/01/04 06:27:03;;;;;;;;;;;;;;;1.75;73.46;101563.83;1656054;84;20240;-76
2023/01/04 06:29:29;;;;;;;;;;;;;;;1.75;73.51;101562.97;1649418;84;20203;-76
2023/01/04 06:31:56;;;;;;;;;;;;;;;1.75;73.48;101560.41;1651034;84;20199;-76
2023/01/04 06:34:22;;;;;;;;;;;;;;;1.75;73.54;101562.97;1646781;84;20216;-76
2023/01/04 06:36:48;;;;;;;;;;;;;;;1.76;73.55;101550.68;1631647;85;20982;-76
2023/01/04 06:39:14;;;;;;;;;;;;;;;1.76;73.56;101546.45;1629797;86;20203;-76
2023/01/04 06:41:40;;;;;;;;;;;;;;;1.76;73.55;101537.52;1618876;86;20221;-77
2023/01/04 06:44:06;;;;;;;;;;;;;;;1.76;73.52;101531.55;1631808;87;20209;-77
2023/01/04 06:46:32;;;;;;;;;;;;;;;1.75;73.58;101528.14;1606308;87;20208;-77
2023/01/04 06:48:59;;;;;;;;;;;;;;;1.74;73.59;101526.81;1619022;86;21162;-76
2023/01/04 06:51:25;;;;;;;;;;;;;;;1.75;73.56;101526.86;1630223;86;20205;-76
2023/01/04 06:53:51;;;;;;;;;;;;;;;1.74;73.56;101527.68;1617964;86;20211;-77
2023/01/04 06:56:17;;;;;;;;;;;;;;;1.74;73.59;101538.28;1630199;86;20330;-76
2023/01/04 06:58:43;;;;;;;;;;;;;;;1.73;73.61;101528.90;1617388;86;20171;-76
2023/01/04 07:01:10;;;;;;;;;;;;;;;1.75;73.63;101536.19;1631691;85;21183;-76
2023/01/04 07:03:36;;;;;;;;;;;;;;;1.75;73.60;101532.37;1632582;85;20527;-77
2023/01/04 07:06:06;;;;;;;;;;;;;;;1.75;73.61;101519.22;1629335;85;20670;-76
2023/01/04 07:08:33;;;;;;;;;;;;;;;1.76;73.63;101517.53;1617639;86;20510;-76
2023/01/04 07:10:59;;;;;;;;;;;;;;;1.76;73.65;101508.20;1629079;87;20897;-76
2023/01/04 07:13:26;;;;;;;;;;;;;;;1.77;73.66;101492.09;1633164;85;21693;-76
2023/01/04 07:15:52;;;;;;;;;;;;;;;1.79;73.68;101484.49;1619517;86;20363;-76
2023/01/04 07:18:18;;;;;;;;;;;;;;;1.80;73.72;101478.17;1629950;85;20187;-77
2023/01/04 07:20:44;;;;;;;;;;;;;;;1.82;73.72;101467.61;1619066;86;20192;-77
2023/01/04 07:23:10;;;;;;;;;;;;;;;1.85;73.79;101466.84;1631303;86;20171;-76
2023/01/04 07:25:37;;;;;;;;;;;;;;;1.86;73.77;101469.45;1619631;86;21084;-77
2023/01/04 07:28:03;;;;;;;;;;;;;;;1.91;73.85;101461.95;1631624;86;20218;-77
2023/01/04 07:30:29;;;;;;;;;;;;;;;1.95;73.88;101459.95;1630985;85;20188;-76
2023/01/04 07:32:55;;;;;;;;;;;;;;;1.99;73.83;101455.41;1617495;86;20530;-76
2023/01/04 07:35:22;;;;;;;;;;;;;;;2.04;73.87;101446.64;1633423;85;20201;-76
2023/01/04 07:37:48;;;;;;;;;;;;;;;2.10;73.94;101451.49;1644410;84;21108;-76
2023/01/04 07:40:14;;;;;;;;;;;;;;;2.17;73.94;101448.31;1643879;84;20229;-77
2023/01/04 07:42:41;;;;;;;;;;;;;;;2.33;74.05;101442.00;1642760;84;20181;-77
2023/01/04 07:45:07;;;;;;;;;;;;;;;2.48;74.05;101439.05;1643743;84;20172;-76
2023/01/04 07:47:34;;;;;;;;;;;;;;;2.58;73.98;101435.95;1643417;85;20223;-76
2023/01/04 07:50:00;;;;;;;;;;;;;;;2.66;73.98;101437.88;1646867;84;21068;-77
2023/01/04 07:52:26;;;;;;;;;;;;;;;2.75;74.09;101436.01;1645066;84;20205;-77
2023/01/04 07:54:53;;;;;;;;;;;;;;;2.85;74.06;101429.06;1645716;84;20642;-76
2023/01/04 07:57:19;;;;;;;;;;;;;;;2.96;74.06;101425.53;1643962;85;20265;-76
2023/01/04 07:59:45;;;;;;;;;;;;;;;3.04;74.05;101417.67;1644219;84;20480;-76
2023/01/04 08:02:11;;;;;;;;;;;;;;;3.09;73.97;101402.47;1645757;84;20479;-76
2023/01/04 08:04:38;;;;;;;;;;;;;;;3.12;73.93;101396.16;1644538;84;20197;-76
2023/01/04 08:07:05;;;;;;;;;;;;;;;3.14;74.01;101386.41;1645032;84;20176;-77
2023/01/04 08:09:31;;;;;;;;;;;;;;;3.16;73.98;101373.67;1649224;84;20516;-77
2023/01/04 08:11:57;;;;;;;;;;;;;;;3.19;73.99;101368.64;1644524;84;21036;-77
2023/01/04 08:14:23;;;;;;;;;;;;;;;3.21;74.03;101359.33;1646139;84;21141;-77
2023/01/04 08:16:49;;;;;;;;;;;;;;;3.23;74.07;101348.31;1643045;84;20673;-77
2023/01/04 08:19:18;;;;;;;;;;;;;;;3.27;74.09;101344.14;1645553;84;20203;-77
2023/01/04 08:21:45;;;;;;;;;;;;;;;3.29;74.22;101342.50;1646495;84;20189;-77
2023/01/04 08:24:16;;;;;;;;;;;;;;;3.32;74.15;101336.19;1646934;84;20631;-77
2023/01/04 08:26:43;;;;;;;;;;;;;;;3.35;74.16;101334.11;1647214;84;21175;-77
2023/01/04 08:29:09;;;;;;;;;;;;;;;3.37;74.23;101319.68;1644112;85;20338;-77
2023/01/04 08:31:36;;;;;;;;;;;;;;;3.40;74.20;101315.92;1644814;85;20430;-76
2023/01/04 08:34:04;;;;;;;;;;;;;;;3.42;74.22;101310.44;1645305;84;20204;-76
2023/01/04 08:36:33;;;;;;;;;;;;;;;3.45;74.21;101304.11;1643150;85;20211;-76
2023/01/04 08:39:02;;;;;;;;;;;;;;;3.49;74.30;101304.23;1645913;84;22457;-76
2023/01/04 08:41:49;;;;;;;;;;;;;;;3.51;74.30;101295.31;1645202;84;20275;-77
2023/01/04 08:44:01;;;;;;;;;;;;;;;3.54;74.34;101285.16;1642455;84;20627;-77
2023/01/04 08:46:27;;;;;;;;;;;;;;;3.57;74.26;101286.51;1643726;84;20175;-77
2023/01/04 08:48:53;;;;;;;;;;;;;;;3.60;74.21;101282.33;1643560;84;20192;-77
2023/01/04 08:51:20;;;;;;;;;;;;;;;3.62;74.28;101272.14;1643955;84;21056;-77
2023/01/04 08:53:46;;;;;;;;;;;;;;;3.64;74.28;101276.42;1646767;84;20254;-77
2023/01/04 08:56:12;;;;;;;;;;;;;;;3.68;74.38;101270.10;1645529;84;20193;-77
2023/01/04 08:58:39;;;;;;;;;;;;;;;3.70;74.30;101266.75;1645763;84;20230;-77
2023/01/04 09:01:10;;;;;;;;;;;;;;;3.76;74.33;101260.91;1644878;84;20183;-77
2023/01/04 09:03:37;;;;;;;;;;;;;;;3.82;74.32;101250.81;1644375;84;21861;-77
2023/01/04 09:06:09;;;;;;;;;;;;;;;3.85;74.34;101250.47;1643398;85;20247;-76
2023/01/04 09:08:37;;;;;;;;;;;;;;;3.90;74.42;101241.61;1641921;84;20183;-76
2023/01/04 09:11:10;;;;;;;;;;;;;;;3.93;74.34;101241.25;1642852;84;21182;-76
2023/01/04 09:13:36;;;;;;;;;;;;;;;3.96;74.50;101229.80;1640085;85;20220;-76
2023/01/04 09:16:04;;;;;;;;;;;;;;;3.96;74.46;101219.58;1643141;84;21003;-76
2023/01/04 09:18:30;;;;;;;;;;;;;;;3.99;74.45;101215.80;1643828;84;20194;-76
2023/01/04 09:20:57;;;;;;;;;;;;;;;4.03;74.47;101210.75;1647849;84;20411;-76
2023/01/04 09:23:23;;;;;;;;;;;;;;;4.05;74.42;101211.64;1648997;84;20371;-76
2023/01/04 09:25:50;;;;;;;;;;;;;;;4.08;74.42;101206.58;1647012;84;20879;-76
2023/01/04 09:28:17;;;;;;;;;;;;;;;4.12;74.47;101207.09;1646736;84;21087;-77
2023/01/04 09:30:43;;;;;;;;;;;;;;;4.16;74.44;101196.08;1644488;84;20184;-77
2023/01/04 09:33:09;;;;;;;;;;;;;;;4.18;74.52;101172.20;1644235;85;20194;-76
2023/01/04 09:35:35;;;;;;;;;;;;;;;4.21;74.45;101168.84;1644187;84;20463;-76
2023/01/04 09:38:01;;;;;;;;;;;;;;;4.23;74.47;101157.80;1617873;86;21173;-77
2023/01/04 09:40:31;;;;;;;;;;;;;;;4.26;74.52;101138.66;1620167;86;21540;-77
2023/01/04 09:42:58;;;;;;;;;;;;;;;4.29;74.48;101127.61;1629991;85;20888;-77
2023/01/04 09:45:26;;;;;;;;;;;;;;;4.33;74.50;101122.99;1633463;84;27357;-77
2023/01/04 09:48:02;;;;;;;;;;;;;;;4.37;74.52;101125.19;1620106;86;20659;-77
2023/01/04 09:50:33;;;;;;;;;;;;;;;4.40;74.54;101117.14;1614462;86;20443;-77
2023/01/04 09:53:18;;;;;;;;;;;;;;;4.43;74.50;101110.80;1615576;86;21812;-77
2023/01/04 09:55:48;;;;;;;;;;;;;;;4.47;74.55;101097.63;1620082;86;20142;-77
2023/01/04 09:58:26;;;;;;;;;;;;;;;4.51;74.55;101086.59;1626405;86;20615;-77
2023/01/04 10:01:09;;;;;;;;;;;;;;;4.55;74.56;101081.97;1616146;86;20467;-77
2023/01/04 10:03:40;;;;;;;;;;;;;;;4.59;74.56;101078.63;1560305;90;20495;-77
2023/01/04 10:06:09;;;;;;;;;;;;;;;4.61;74.53;101071.41;1565378;90;21027;-77
2023/01/04 10:08:35;;;;;;;;;;;;;;;4.65;74.53;101064.21;1562786;90;20164;-77
2023/01/04 10:11:21;;;;;;;;;;;;;;;4.67;74.52;101067.22;1562959;90;20520;-77
2023/01/04 10:14:00;;;;;;;;;;;;;;;4.71;74.53;101068.95;1566625;90;20180;-77
2023/01/04 10:16:32;;;;;;;;;;;;;;;4.73;74.48;101055.33;1562932;90;20518;-77
2023/01/04 10:19:02;;;;;;;;;;;;;;;4.74;74.50;101042.10;1563599;90;21876;-77
2023/01/04 10:21:35;;;;;;;;;;;;;;;4.75;74.49;101031.88;1560518;90;20180;-77
2023/01/04 10:24:25;;;;;;;;;;;;;;;4.77;74.48;101022.94;1561436;90;20180;-77
2023/01/04 10:26:58;;;;;;;;;;;;;;;4.79;74.50;101014.85;1564973;90;20162;-77
2023/01/04 10:29:36;;;;;;;;;;;;;;;4.81;74.53;101009.33;1560234;90;20118;-77
2023/01/04 10:32:19;;;;;;;;;;;;;;;4.84;74.51;101010.66;1562518;90;21777;-77
2023/01/04 10:34:46;;;;;;;;;;;;;;;4.84;74.55;101011.52;1551640;89;20603;-77
2023/01/04 10:37:35;;;;;;;;;;;;;;;4.86;74.54;101003.43;1569762;89;20539;-77
2023/01/04 10:40:01;;;;;;;;;;;;;;;4.89;74.54;101007.31;1570704;87;20212;-77
2023/01/04 10:42:52;;;;;;;;;;;;;;;4.91;74.55;100996.66;1605972;86;20180;-77
2023/01/04 10:45:40;;;;;;;;;;;;;;;4.94;74.57;100999.27;1647433;84;21650;-77
2023/01/04 10:48:33;;;;;;;;;;;;;;;5.00;74.56;100999.77;1639021;85;21118;-77
2023/01/04 10:51:01;;;;;;;;;;;;;;;5.03;74.57;100990.84;1637554;85;20566;-80
2023/01/04 10:53:37;;;;;;;;;;;;;;;5.07;74.61;100982.34;1640371;85;20316;-77
2023/01/04 10:56:31;;;;;;;;;;;;;;;5.10;74.52;100974.70;1632954;85;20472;-77
2023/01/04 10:59:25;;;;;;;;;;;;;;;5.14;74.54;100969.19;1640980;85;21203;-77
2023/01/04 11:01:55;;;;;;;;;;;;;;;5.17;74.54;100961.11;1644960;85;20168;-77
2023/01/04 11:04:24;;;;;;;;;;;;;;;5.21;74.58;100959.41;1640441;85;20354;-77
2023/01/04 11:07:03;;;;;;;;;;;;;;;5.21;74.62;100955.14;1640335;85;20158;-77
2023/01/04 11:09:36;;;;;;;;;;;;;;;5.23;74.66;100941.92;1636655;85;20154;-77
2023/01/04 11:12:02;;;;;;;;;;;;;;;5.24;74.68;100941.50;1636179;85;21061;-77
2023/01/04 11:14:29;;;;;;;;;;;;;;;5.23;74.73;100921.41;1637714;85;20156;-77
2023/01/04 11:16:58;;;;;;;;;;;;;;;5.22;74.78;100927.80;1637585;85;20470;-77
2023/01/04 11:19:24;;;;;;;;;;;;;;;5.21;74.82;100914.13;1638852;85;20491;-77
2023/01/04 11:21:55;;;;;;;;;;;;;;;5.20;74.91;100916.70;1637408;85;20145;-77
2023/01/04 11:24:21;;;;;;;;;;;;;;;5.18;74.91;100911.56;1638502;85;21445;-77
2023/01/04 11:26:48;;;;;;;;;;;;;;;5.17;74.92;100905.14;1635555;85;20148;-77
2023/01/04 11:29:39;;;;;;;;;;;;;;;5.14;75.01;100899.98;1620966;86;20745;-77
2023/01/04 11:32:14;;;;;;;;;;;;;;;5.11;75.10;100890.97;1610889;86;20160;-77
2023/01/04 11:34:47;;;;;;;;;;;;;;;5.09;75.12;100884.55;1606696;86;20516;-77
2023/01/04 11:37:28;;;;;;;;;;;;;;;5.08;75.29;100869.16;1606803;86;21101;-77
2023/01/04 11:40:18;;;;;;;;;;;;;;;5.05;75.26;100864.86;1620961;86;20620;-77
2023/01/04 11:42:47;;;;;;;;;;;;;;;5.04;75.24;100851.60;1618424;86;20668;-77
2023/01/04 11:45:22;;;;;;;;;;;;;;;5.03;75.39;100840.05;1647276;84;20645;-77
2023/01/04 11:47:52;;;;;;;;;;;;;;;5.01;75.34;100825.09;1645520;84;20843;-77
2023/01/04 11:50:39;;;;;;;;;;;;;;;5.01;75.47;100829.78;1647467;84;21629;-77
2023/01/04 11:53:23;;;;;;;;;;;;;;;5.00;75.45;100813.98;1650262;84;20199;-77
2023/01/04 11:55:49;;;;;;;;;;;;;;;4.99;75.42;100796.88;1648018;85;20192;-77
2023/01/04 11:58:18;;;;;;;;;;;;;;;5.00;75.56;100798.59;1637074;85;20408;-77
2023/01/04 12:00:56;;;;;;;;;;;;;;;5.01;75.51;100796.47;1636863;85;20625;-77
2023/01/04 12:03:39;;;;;;;;;;;;;;;5.01;75.58;100791.35;1637217;85;21164;-77
2023/01/04 12:06:18;;;;;;;;;;;;;;;5.01;75.68;100785.36;1638074;85;20220;-77
2023/01/04 12:08:44;;;;;;;;;;;;;;;5.02;75.71;100775.13;1619576;86;20560;-77
2023/01/04 12:11:30;;;;;;;;;;;;;;;5.04;75.67;100762.33;1608889;86;20286;-77
2023/01/04 12:13:58;;;;;;;;;;;;;;;5.03;75.88;100766.59;1618699;86;20543;-77
2023/01/04 12:16:43;;;;;;;;;;;;;;;5.03;75.83;100756.34;1608740;86;21853;-77
2023/01/04 12:19:14;;;;;;;;;;;;;;;5.06;75.76;100750.39;1610000;86;20911;-77
2023/01/04 12:21:43;;;;;;;;;;;;;;;5.05;75.87;100730.31;1623588;86;20177;-77
2023/01/04 12:24:10;;;;;;;;;;;;;;;5.07;75.89;100731.18;1643096;85;20231;-77
2023/01/04 12:26:41;;;;;;;;;;;;;;;5.08;75.86;100723.92;1627170;86;20218;-77
2023/01/04 12:29:26;;;;;;;;;;;;;;;5.09;76.01;100719.23;1620706;86;20802;-77
2023/01/04 12:32:02;;;;;;;;;;;;;;;5.12;75.74;100722.25;1621355;86;20217;-77
2023/01/04 12:34:33;;;;;;;;;;;;;;;5.12;76.03;100712.85;1608942;86;20208;-77
2023/01/04 12:37:00;;;;;;;;;;;;;;;5.14;76.05;100706.45;1623066;86;20216;-77
2023/01/04 12:39:40;;;;;;;;;;;;;;;5.15;76.12;100692.38;1585909;89;170424;-77
2023/01/04 12:42:17;;;;;;;;;;;;;;;5.16;76.06;100700.92;1605896;88;21072;-77
2023/01/04 12:44:50;;;;;;;;;;;;;;;5.17;76.10;100689.40;1610989;87;20607;-77
2023/01/04 12:50:11;;;;;;;;;;;;;;;5.22;76.00;100672.73;1610982;88;20390;-77
2023/01/04 12:52:45;;;;;;;;;;;;;;;5.23;76.27;100665.48;1606804;86;20232;-77
2023/01/04 12:55:40;;;;;;;;;;;;;;;5.23;76.13;100658.65;1607482;87;21138;-77
2023/01/04 12:58:05;;;;;;;;;;;;;;;5.23;76.13;100656.09;1609462;87;20182;-77
2023/01/04 13:00:53;;;;;;;;;;;;;;;5.23;76.26;100647.11;1608498;88;20174;-77
2023/01/04 13:03:23;;;;;;;;;;;;;;;5.24;76.42;100643.70;1608509;87;20176;-76
2023/01/04 13:05:53;;;;;;;;;;;;;;;5.26;76.29;100636.87;1607758;87;20883;-77
2023/01/04 13:08:19;;;;;;;;;;;;;;;5.26;76.34;100625.34;1608853;87;22178;-77
2023/01/04 13:10:48;;;;;;;;;;;;;;;5.28;76.51;100622.78;1604107;88;20233;-77
2023/01/04 13:13:45;;;;;;;;;;;;;;;5.27;76.48;100611.67;1591644;88;20237;-77
2023/01/04 13:16:38;;;;;;;;;;;;;;;5.28;76.38;100605.70;1606016;88;20187;-77
2023/01/04 13:19:14;;;;;;;;;;;;;;;5.28;76.66;100593.30;1611136;86;20234;-77
2023/01/04 13:21:42;;;;;;;;;;;;;;;5.27;76.51;100584.75;1607846;88;21108;-77
2023/01/04 13:24:15;;;;;;;;;;;;;;;5.28;76.66;100585.19;1611781;88;20522;-77
2023/01/04 13:26:44;;;;;;;;;;;;;;;5.29;76.69;100577.93;1614772;88;20191;-77
2023/01/04 13:29:23;;;;;;;;;;;;;;;5.30;76.69;100577.50;1618276;87;20210;-77
2023/01/04 13:32:10;;;;;;;;;;;;;;;5.31;76.91;100565.13;1615821;86;20253;-77
2023/01/04 13:34:39;;;;;;;;;;;;;;;5.33;76.87;100565.98;1613580;88;21549;-77
2023/01/04 13:37:16;;;;;;;;;;;;;;;5.32;77.04;100551.03;1628203;84;20150;-77
2023/01/04 13:39:47;;;;;;;;;;;;;;;5.35;76.94;100553.17;1636261;86;20545;-77
2023/01/04 13:42:29;;;;;;;;;;;;;;;5.36;77.02;100551.90;1627392;86;20112;-77